sensor_id;sensor_type;location;lat;lon;timestamp;temperature;humidity
9448;DHT22;4762;48.128;11.376;2022-09-21T00:00:09;5.50;93.70
9448;DHT22;4762;48.128;11.376;2022-09-21T00:02:12;5.70;93.70
9448;DHT22;4762;48.128;11.376;2022-09-21T00:04:17;5.60;92.90
9448;DHT22;4762;48.128;11.376;2022-09-21T00:06:20;5.60;93.20
9448;DHT22;4762;48.128;11.376;2022-09-21T00:08:23;5.60;93.10
9448;DHT22;4762;48.128;11.376;2022-09-21T00:10:28;5.40;93.20
9448;DHT22;4762;48.128;11.376;2022-09-21T00:12:30;5.60;93.10
9448;DHT22;4762;48.128;11.376;2022-09-21T00:14:34;5.50;93.40
9448;DHT22;4762;48.128;11.376;2022-09-21T00:16:39;5.50;93.10
9448;DHT22;4762;48.128;11.376;2022-09-21T00:18:42;5.30;93.40
9448;DHT22;4762;48.128;11.376;2022-09-21T00:20:52;5.40;92.90
9448;DHT22;4762;48.128;11.376;2022-09-21T00:22:55;5.20;93.20
9448;DHT22;4762;48.128;11.376;2022-09-21T00:25:01;5.30;93.40
9448;DHT22;4762;48.128;11.376;2022-09-21T00:27:14;5.10;93.80
9448;DHT22;4762;48.128;11.376;2022-09-21T00:46:37;5.10;93.30
9448;DHT22;4762;48.128;11.376;2022-09-21T00:48:40;4.90;93.70
9448;DHT22;4762;48.128;11.376;2022-09-21T00:50:50;4.90;94.20
9448;DHT22;4762;48.128;11.376;2022-09-21T00:53:28;4.90;94.70
9448;DHT22;4762;48.128;11.376;2022-09-21T00:55:36;4.70;94.90
9448;DHT22;4762;48.128;11.376;2022-09-21T00:57:42;4.80;94.70
9448;DHT22;4762;48.128;11.376;2022-09-21T00:59:45;4.60;94.60
9448;DHT22;4762;48.128;11.376;2022-09-21T01:02:04;4.70;94.20
9448;DHT22;4762;48.128;11.376;2022-09-21T01:04:06;4.80;94.00
9448;DHT22;4762;48.128;11.376;2022-09-21T01:06:14;4.60;94.00
9448;DHT22;4762;48.128;11.376;2022-09-21T01:08:17;4.50;94.30
9448;DHT22;4762;48.128;11.376;2022-09-21T01:10:20;4.50;93.90
9448;DHT22;4762;48.128;11.376;2022-09-21T01:12:35;4.40;94.10
9448;DHT22;4762;48.128;11.376;2022-09-21T01:14:50;4.60;94.30
9448;DHT22;4762;48.128;11.376;2022-09-21T01:16:56;4.60;94.50
9448;DHT22;4762;48.128;11.376;2022-09-21T01:19:18;4.60;94.30
9448;DHT22;4762;48.128;11.376;2022-09-21T01:21:24;4.40;94.10
9448;DHT22;4762;48.128;11.376;2022-09-21T01:23:40;4.60;93.30
9448;DHT22;4762;48.128;11.376;2022-09-21T01:26:14;4.40;94.70
9448;DHT22;4762;48.128;11.376;2022-09-21T01:28:25;4.50;95.10
9448;DHT22;4762;48.128;11.376;2022-09-21T01:30:35;4.30;94.70
9448;DHT22;4762;48.128;11.376;2022-09-21T01:32:43;4.30;94.40
9448;DHT22;4762;48.128;11.376;2022-09-21T01:37:36;4.40;94.40
9448;DHT22;4762;48.128;11.376;2022-09-21T01:39:42;4.30;93.90
9448;DHT22;4762;48.128;11.376;2022-09-21T01:44:40;4.30;95.60
9448;DHT22;4762;48.128;11.376;2022-09-21T01:46:43;4.10;94.80
9448;DHT22;4762;48.128;11.376;2022-09-21T01:48:51;4.20;95.00
9448;DHT22;4762;48.128;11.376;2022-09-21T01:50:54;4.30;94.70
9448;DHT22;4762;48.128;11.376;2022-09-21T01:53:10;4.30;94.80
9448;DHT22;4762;48.128;11.376;2022-09-21T01:55:16;4.20;94.70
9448;DHT22;4762;48.128;11.376;2022-09-21T01:57:41;4.00;94.80
9448;DHT22;4762;48.128;11.376;2022-09-21T02:02:33;3.90;94.70
9448;DHT22;4762;48.128;11.376;2022-09-21T02:15:07;3.70;94.60
9448;DHT22;4762;48.128;11.376;2022-09-21T02:27:55;3.90;93.20
9448;DHT22;4762;48.128;11.376;2022-09-21T02:35:25;3.70;93.10
9448;DHT22;4762;48.128;11.376;2022-09-21T02:50:50;3.70;93.00
9448;DHT22;4762;48.128;11.376;2022-09-21T02:52:56;3.60;92.50
9448;DHT22;4762;48.128;11.376;2022-09-21T02:55:08;3.70;92.60
9448;DHT22;4762;48.128;11.376;2022-09-21T02:57:16;3.50;94.00
9448;DHT22;4762;48.128;11.376;2022-09-21T02:59:32;3.40;94.90
9448;DHT22;4762;48.128;11.376;2022-09-21T03:01:38;3.30;95.40
9448;DHT22;4762;48.128;11.376;2022-09-21T03:03:46;3.10;95.40
9448;DHT22;4762;48.128;11.376;2022-09-21T03:05:53;3.10;95.00
9448;DHT22;4762;48.128;11.376;2022-09-21T03:07:58;3.10;94.90
9448;DHT22;4762;48.128;11.376;2022-09-21T03:10:13;3.20;94.60
9448;DHT22;4762;48.128;11.376;2022-09-21T03:12:27;3.40;94.30
9448;DHT22;4762;48.128;11.376;2022-09-21T03:31:47;3.00;94.40
9448;DHT22;4762;48.128;11.376;2022-09-21T03:33:56;2.70;95.10
9448;DHT22;4762;48.128;11.376;2022-09-21T03:36:13;2.80;95.20
9448;DHT22;4762;48.128;11.376;2022-09-21T03:38:34;2.80;94.60
9448;DHT22;4762;48.128;11.376;2022-09-21T03:40:39;2.70;94.30
9448;DHT22;4762;48.128;11.376;2022-09-21T03:42:44;2.80;94.30
9448;DHT22;4762;48.128;11.376;2022-09-21T03:44:48;2.60;95.10
9448;DHT22;4762;48.128;11.376;2022-09-21T03:46:56;2.60;95.10
9448;DHT22;4762;48.128;11.376;2022-09-21T03:49:01;2.50;95.40
9448;DHT22;4762;48.128;11.376;2022-09-21T03:51:10;2.50;95.10
9448;DHT22;4762;48.128;11.376;2022-09-21T03:53:21;2.50;95.50
9448;DHT22;4762;48.128;11.376;2022-09-21T03:55:27;2.50;95.70
9448;DHT22;4762;48.128;11.376;2022-09-21T03:57:35;2.50;95.90
9448;DHT22;4762;48.128;11.376;2022-09-21T03:59:43;2.50;95.90
9448;DHT22;4762;48.128;11.376;2022-09-21T04:01:48;2.60;95.50
9448;DHT22;4762;48.128;11.376;2022-09-21T04:03:55;2.50;95.50
9448;DHT22;4762;48.128;11.376;2022-09-21T04:06:13;2.50;95.20
9448;DHT22;4762;48.128;11.376;2022-09-21T04:08:19;2.60;95.30
9448;DHT22;4762;48.128;11.376;2022-09-21T04:10:24;2.60;94.90
9448;DHT22;4762;48.128;11.376;2022-09-21T04:12:32;2.60;94.90
9448;DHT22;4762;48.128;11.376;2022-09-21T04:14:39;2.60;94.30
9448;DHT22;4762;48.128;11.376;2022-09-21T04:16:44;2.70;94.60
9448;DHT22;4762;48.128;11.376;2022-09-21T04:18:53;2.70;94.50
9448;DHT22;4762;48.128;11.376;2022-09-21T04:21:05;2.60;95.70
9448;DHT22;4762;48.128;11.376;2022-09-21T04:23:17;2.70;95.40
9448;DHT22;4762;48.128;11.376;2022-09-21T04:25:41;2.50;95.60
9448;DHT22;4762;48.128;11.376;2022-09-21T04:45:23;2.60;96.60
9448;DHT22;4762;48.128;11.376;2022-09-21T04:47:38;2.70;96.70
9448;DHT22;4762;48.128;11.376;2022-09-21T04:49:43;2.70;96.80
9448;DHT22;4762;48.128;11.376;2022-09-21T04:52:05;2.80;96.40
9448;DHT22;4762;48.128;11.376;2022-09-21T04:54:15;2.80;96.40
9448;DHT22;4762;48.128;11.376;2022-09-21T04:56:23;2.80;96.30
9448;DHT22;4762;48.128;11.376;2022-09-21T05:03:36;2.60;95.70
9448;DHT22;4762;48.128;11.376;2022-09-21T05:25:42;2.60;94.60
9448;DHT22;4762;48.128;11.376;2022-09-21T05:27:58;2.60;94.30
9448;DHT22;4762;48.128;11.376;2022-09-21T05:30:06;2.70;95.70
9448;DHT22;4762;48.128;11.376;2022-09-21T05:33:05;2.60;95.50
9448;DHT22;4762;48.128;11.376;2022-09-21T05:35:06;2.70;94.80
9448;DHT22;4762;48.128;11.376;2022-09-21T05:37:35;2.80;95.20
9448;DHT22;4762;48.128;11.376;2022-09-21T05:39:58;2.60;94.90
9448;DHT22;4762;48.128;11.376;2022-09-21T05:42:23;2.50;94.80
9448;DHT22;4762;48.128;11.376;2022-09-21T05:44:34;2.70;95.30
9448;DHT22;4762;48.128;11.376;2022-09-21T05:46:41;2.80;95.30
9448;DHT22;4762;48.128;11.376;2022-09-21T05:49:02;2.80;95.30
9448;DHT22;4762;48.128;11.376;2022-09-21T05:53:47;2.90;96.10
9448;DHT22;4762;48.128;11.376;2022-09-21T05:56:00;3.10;96.00
9448;DHT22;4762;48.128;11.376;2022-09-21T06:00:58;3.10;95.70
9448;DHT22;4762;48.128;11.376;2022-09-21T06:05:16;3.30;96.10
9448;DHT22;4762;48.128;11.376;2022-09-21T06:07:27;3.40;96.00
9448;DHT22;4762;48.128;11.376;2022-09-21T06:09:42;3.50;96.20
9448;DHT22;4762;48.128;11.376;2022-09-21T06:11:53;3.80;96.10
9448;DHT22;4762;48.128;11.376;2022-09-21T06:14:05;3.70;96.20
9448;DHT22;4762;48.128;11.376;2022-09-21T06:18:58;3.90;96.40
9448;DHT22;4762;48.128;11.376;2022-09-21T06:21:11;4.20;96.60
9448;DHT22;4762;48.128;11.376;2022-09-21T06:40:40;5.00;96.90
9448;DHT22;4762;48.128;11.376;2022-09-21T06:42:43;5.20;96.70
9448;DHT22;4762;48.128;11.376;2022-09-21T06:44:47;5.50;96.90
9448;DHT22;4762;48.128;11.376;2022-09-21T06:46:52;6.10;97.30
9448;DHT22;4762;48.128;11.376;2022-09-21T06:48:58;7.00;99.90
9448;DHT22;4762;48.128;11.376;2022-09-21T06:51:04;7.70;97.30
9448;DHT22;4762;48.128;11.376;2022-09-21T06:53:13;8.10;95.00
9448;DHT22;4762;48.128;11.376;2022-09-21T06:55:34;8.80;94.50
9448;DHT22;4762;48.128;11.376;2022-09-21T06:57:42;9.30;93.20
9448;DHT22;4762;48.128;11.376;2022-09-21T06:59:48;9.60;89.20
9448;DHT22;4762;48.128;11.376;2022-09-21T07:01:52;9.60;89.90
9448;DHT22;4762;48.128;11.376;2022-09-21T07:03:56;10.10;91.00
9448;DHT22;4762;48.128;11.376;2022-09-21T07:06:02;10.10;89.10
9448;DHT22;4762;48.128;11.376;2022-09-21T07:15:51;10.80;86.90
9448;DHT22;4762;48.128;11.376;2022-09-21T07:18:00;11.10;88.30
9448;DHT22;4762;48.128;11.376;2022-09-21T07:20:04;11.40;88.70
9448;DHT22;4762;48.128;11.376;2022-09-21T07:22:24;11.60;84.40
9448;DHT22;4762;48.128;11.376;2022-09-21T07:24:31;11.70;85.60
9448;DHT22;4762;48.128;11.376;2022-09-21T08:22:26;15.90;76.10
9448;DHT22;4762;48.128;11.376;2022-09-21T08:24:29;15.50;73.10
9448;DHT22;4762;48.128;11.376;2022-09-21T08:26:34;15.80;73.90
9448;DHT22;4762;48.128;11.376;2022-09-21T08:28:39;16.30;73.10
9448;DHT22;4762;48.128;11.376;2022-09-21T08:30:41;17.20;71.20
9448;DHT22;4762;48.128;11.376;2022-09-21T08:32:46;17.00;69.40
9448;DHT22;4762;48.128;11.376;2022-09-21T08:52:16;17.50;68.10
9448;DHT22;4762;48.128;11.376;2022-09-21T08:57:07;17.60;66.60
9448;DHT22;4762;48.128;11.376;2022-09-21T08:59:10;17.20;64.10
9448;DHT22;4762;48.128;11.376;2022-09-21T09:01:59;17.10;66.20
9448;DHT22;4762;48.128;11.376;2022-09-21T09:34:37;17.90;65.00
9448;DHT22;4762;48.128;11.376;2022-09-21T09:39:00;18.70;60.40
9448;DHT22;4762;48.128;11.376;2022-09-21T09:41:24;18.30;60.80
9448;DHT22;4762;48.128;11.376;2022-09-21T09:43:29;17.40;62.60
9448;DHT22;4762;48.128;11.376;2022-09-21T09:45:31;16.80;65.10
9448;DHT22;4762;48.128;11.376;2022-09-21T09:50:29;16.40;64.60
9448;DHT22;4762;48.128;11.376;2022-09-21T09:52:34;17.40;62.30
9448;DHT22;4762;48.128;11.376;2022-09-21T09:54:38;16.30;63.80
9448;DHT22;4762;48.128;11.376;2022-09-21T09:56:42;16.70;66.20
9448;DHT22;4762;48.128;11.376;2022-09-21T09:58:51;16.70;63.90
9448;DHT22;4762;48.128;11.376;2022-09-21T10:00:57;16.30;62.80
9448;DHT22;4762;48.128;11.376;2022-09-21T10:03:14;16.10;63.90
9448;DHT22;4762;48.128;11.376;2022-09-21T10:05:17;17.10;64.30
9448;DHT22;4762;48.128;11.376;2022-09-21T10:07:17;17.40;62.80
9448;DHT22;4762;48.128;11.376;2022-09-21T10:09:30;18.30;60.50
9448;DHT22;4762;48.128;11.376;2022-09-21T10:14:09;19.20;61.10
9448;DHT22;4762;48.128;11.376;2022-09-21T10:16:18;19.10;58.00
9448;DHT22;4762;48.128;11.376;2022-09-21T10:18:41;17.70;61.30
9448;DHT22;4762;48.128;11.376;2022-09-21T10:21:08;16.70;62.20
9448;DHT22;4762;48.128;11.376;2022-09-21T10:23:22;17.10;63.30
9448;DHT22;4762;48.128;11.376;2022-09-21T10:25:40;17.80;60.30
9448;DHT22;4762;48.128;11.376;2022-09-21T10:27:46;17.40;59.70
9448;DHT22;4762;48.128;11.376;2022-09-21T10:29:50;17.20;61.00
9448;DHT22;4762;48.128;11.376;2022-09-21T10:37:34;15.70;64.30
9448;DHT22;4762;48.128;11.376;2022-09-21T10:39:49;15.60;64.60
9448;DHT22;4762;48.128;11.376;2022-09-21T10:42:05;16.20;64.30
9448;DHT22;4762;48.128;11.376;2022-09-21T10:44:13;17.20;61.70
9448;DHT22;4762;48.128;11.376;2022-09-21T10:46:17;17.30;64.10
9448;DHT22;4762;48.128;11.376;2022-09-21T10:48:23;18.40;59.60
9448;DHT22;4762;48.128;11.376;2022-09-21T10:58:32;18.70;59.20
9448;DHT22;4762;48.128;11.376;2022-09-21T11:39:25;17.40;59.60
9448;DHT22;4762;48.128;11.376;2022-09-21T11:41:44;17.00;60.70
9448;DHT22;4762;48.128;11.376;2022-09-21T11:43:59;16.80;60.60
9448;DHT22;4762;48.128;11.376;2022-09-21T11:48:37;17.80;58.50
9448;DHT22;4762;48.128;11.376;2022-09-21T11:51:34;17.80;59.60
9448;DHT22;4762;48.128;11.376;2022-09-21T12:13:13;20.40;54.10
9448;DHT22;4762;48.128;11.376;2022-09-21T12:15:28;19.50;54.30
9448;DHT22;4762;48.128;11.376;2022-09-21T12:19:54;19.30;54.80
9448;DHT22;4762;48.128;11.376;2022-09-21T12:44:29;20.00;53.10
9448;DHT22;4762;48.128;11.376;2022-09-21T12:47:03;20.40;52.80
9448;DHT22;4762;48.128;11.376;2022-09-21T12:49:27;20.80;52.70
9448;DHT22;4762;48.128;11.376;2022-09-21T12:51:38;20.40;51.60
9448;DHT22;4762;48.128;11.376;2022-09-21T12:53:47;20.70;50.30
9448;DHT22;4762;48.128;11.376;2022-09-21T12:56:04;20.40;51.70
9448;DHT22;4762;48.128;11.376;2022-09-21T13:01:09;20.40;51.80
9448;DHT22;4762;48.128;11.376;2022-09-21T13:03:17;20.60;52.80
9448;DHT22;4762;48.128;11.376;2022-09-21T13:08:16;20.90;52.30
9448;DHT22;4762;48.128;11.376;2022-09-21T13:32:50;18.30;54.20
9448;DHT22;4762;48.128;11.376;2022-09-21T13:35:43;18.30;53.90
9448;DHT22;4762;48.128;11.376;2022-09-21T13:37:25;18.80;51.60
9448;DHT22;4762;48.128;11.376;2022-09-21T13:42:43;19.90;52.30
9448;DHT22;4762;48.128;11.376;2022-09-21T13:44:44;20.10;50.70
9448;DHT22;4762;48.128;11.376;2022-09-21T14:07:07;19.70;52.00
9448;DHT22;4762;48.128;11.376;2022-09-21T14:09:19;19.90;52.10
9448;DHT22;4762;48.128;11.376;2022-09-21T14:11:37;20.10;51.00
9448;DHT22;4762;48.128;11.376;2022-09-21T14:16:59;19.70;51.60
9448;DHT22;4762;48.128;11.376;2022-09-21T14:24:18;19.20;52.30
9448;DHT22;4762;48.128;11.376;2022-09-21T14:28:57;19.20;52.90
9448;DHT22;4762;48.128;11.376;2022-09-21T14:53:50;19.40;51.30
9448;DHT22;4762;48.128;11.376;2022-09-21T14:56:53;19.00;51.80
9448;DHT22;4762;48.128;11.376;2022-09-21T14:58:42;19.40;51.20
9448;DHT22;4762;48.128;11.376;2022-09-21T15:00:46;19.40;51.30
9448;DHT22;4762;48.128;11.376;2022-09-21T16:23:37;15.30;58.00
9448;DHT22;4762;48.128;11.376;2022-09-21T16:25:52;15.20;59.10
9448;DHT22;4762;48.128;11.376;2022-09-21T16:27:53;15.10;58.20
9448;DHT22;4762;48.128;11.376;2022-09-21T16:29:58;15.10;58.20
9448;DHT22;4762;48.128;11.376;2022-09-21T16:34:21;14.70;59.60
9448;DHT22;4762;48.128;11.376;2022-09-21T16:36:38;14.90;58.70
9448;DHT22;4762;48.128;11.376;2022-09-21T16:38:41;14.80;58.90
9448;DHT22;4762;48.128;11.376;2022-09-21T16:40:45;14.70;59.30
9448;DHT22;4762;48.128;11.376;2022-09-21T16:42:48;14.70;59.20
9448;DHT22;4762;48.128;11.376;2022-09-21T16:44:52;14.50;60.20
9448;DHT22;4762;48.128;11.376;2022-09-21T16:46:56;14.30;60.90
9448;DHT22;4762;48.128;11.376;2022-09-21T16:53:57;14.20;62.20
9448;DHT22;4762;48.128;11.376;2022-09-21T16:56:00;13.90;62.40
9448;DHT22;4762;48.128;11.376;2022-09-21T16:58:07;13.90;62.50
9448;DHT22;4762;48.128;11.376;2022-09-21T17:00:12;13.80;62.70
9448;DHT22;4762;48.128;11.376;2022-09-21T17:02:21;13.50;63.70
9448;DHT22;4762;48.128;11.376;2022-09-21T17:04:31;13.50;64.50
9448;DHT22;4762;48.128;11.376;2022-09-21T17:06:43;13.40;64.20
9448;DHT22;4762;48.128;11.376;2022-09-21T17:09:04;13.50;64.30
9448;DHT22;4762;48.128;11.376;2022-09-21T17:11:16;13.40;64.60
9448;DHT22;4762;48.128;11.376;2022-09-21T17:13:27;13.50;64.40
9448;DHT22;4762;48.128;11.376;2022-09-21T17:15:41;13.60;65.40
9448;DHT22;4762;48.128;11.376;2022-09-21T17:17:59;13.40;65.50
9448;DHT22;4762;48.128;11.376;2022-09-21T17:22:38;13.20;66.10
9448;DHT22;4762;48.128;11.376;2022-09-21T17:27:11;13.00;67.00
9448;DHT22;4762;48.128;11.376;2022-09-21T17:29:30;12.90;67.40
9448;DHT22;4762;48.128;11.376;2022-09-21T17:31:35;13.00;66.60
9448;DHT22;4762;48.128;11.376;2022-09-21T17:33:44;12.90;67.60
9448;DHT22;4762;48.128;11.376;2022-09-21T17:35:51;12.90;67.30
9448;DHT22;4762;48.128;11.376;2022-09-21T17:38:01;12.90;67.60
9448;DHT22;4762;48.128;11.376;2022-09-21T17:40:10;12.70;68.20
9448;DHT22;4762;48.128;11.376;2022-09-21T17:42:31;12.70;68.40
9448;DHT22;4762;48.128;11.376;2022-09-21T17:45:01;12.70;68.90
9448;DHT22;4762;48.128;11.376;2022-09-21T17:47:23;12.30;69.80
9448;DHT22;4762;48.128;11.376;2022-09-21T17:49:27;12.30;69.00
9448;DHT22;4762;48.128;11.376;2022-09-21T17:51:29;12.10;69.60
9448;DHT22;4762;48.128;11.376;2022-09-21T17:53:40;12.30;69.50
9448;DHT22;4762;48.128;11.376;2022-09-21T17:55:49;12.40;69.50
9448;DHT22;4762;48.128;11.376;2022-09-21T18:00:22;12.20;70.10
9448;DHT22;4762;48.128;11.376;2022-09-21T18:02:24;11.90;70.50
9448;DHT22;4762;48.128;11.376;2022-09-21T18:04:27;11.80;69.90
9448;DHT22;4762;48.128;11.376;2022-09-21T18:06:32;11.80;70.10
9448;DHT22;4762;48.128;11.376;2022-09-21T18:08:34;11.90;70.30
9448;DHT22;4762;48.128;11.376;2022-09-21T18:10:37;11.80;70.60
9448;DHT22;4762;48.128;11.376;2022-09-21T18:17:42;11.40;71.30
9448;DHT22;4762;48.128;11.376;2022-09-21T18:19:47;11.40;71.50
9448;DHT22;4762;48.128;11.376;2022-09-21T18:21:46;11.40;70.90
9448;DHT22;4762;48.128;11.376;2022-09-21T18:24:10;11.30;71.40
9448;DHT22;4762;48.128;11.376;2022-09-21T18:26:09;11.30;71.40
9448;DHT22;4762;48.128;11.376;2022-09-21T18:28:33;11.30;71.70
9448;DHT22;4762;48.128;11.376;2022-09-21T18:30:32;11.10;72.60
9448;DHT22;4762;48.128;11.376;2022-09-21T18:32:56;11.10;72.00
9448;DHT22;4762;48.128;11.376;2022-09-21T18:37:53;11.10;72.00
9448;DHT22;4762;48.128;11.376;2022-09-21T18:47:50;10.80;72.90
9448;DHT22;4762;48.128;11.376;2022-09-21T18:49:53;10.70;72.50
9448;DHT22;4762;48.128;11.376;2022-09-21T18:54:28;10.50;73.30
9448;DHT22;4762;48.128;11.376;2022-09-21T18:56:36;10.30;74.40
9448;DHT22;4762;48.128;11.376;2022-09-21T18:58:39;10.40;74.20
9448;DHT22;4762;48.128;11.376;2022-09-21T19:00:47;10.40;74.20
9448;DHT22;4762;48.128;11.376;2022-09-21T19:02:54;10.30;74.40
9448;DHT22;4762;48.128;11.376;2022-09-21T19:04:59;10.10;75.40
9448;DHT22;4762;48.128;11.376;2022-09-21T19:07:18;10.00;75.00
9448;DHT22;4762;48.128;11.376;2022-09-21T19:11:53;10.00;75.40
9448;DHT22;4762;48.128;11.376;2022-09-21T19:14:04;9.90;75.40
9448;DHT22;4762;48.128;11.376;2022-09-21T19:18:37;9.90;76.00
9448;DHT22;4762;48.128;11.376;2022-09-21T19:20:56;9.90;76.00
9448;DHT22;4762;48.128;11.376;2022-09-21T19:25:33;10.00;75.80
9448;DHT22;4762;48.128;11.376;2022-09-21T19:27:37;10.00;76.80
9448;DHT22;4762;48.128;11.376;2022-09-21T19:32:14;9.70;77.40
9448;DHT22;4762;48.128;11.376;2022-09-21T19:34:17;9.60;77.60
9448;DHT22;4762;48.128;11.376;2022-09-21T19:36:22;9.60;77.30
9448;DHT22;4762;48.128;11.376;2022-09-21T19:38:25;9.50;78.00
9448;DHT22;4762;48.128;11.376;2022-09-21T19:40:30;9.40;78.30
9448;DHT22;4762;48.128;11.376;2022-09-21T19:42:51;9.40;79.10
9448;DHT22;4762;48.128;11.376;2022-09-21T19:45:04;9.40;78.10
9448;DHT22;4762;48.128;11.376;2022-09-21T19:47:21;9.30;78.30
9448;DHT22;4762;48.128;11.376;2022-09-21T19:49:33;9.20;78.50
9448;DHT22;4762;48.128;11.376;2022-09-21T19:51:38;9.20;79.10
9448;DHT22;4762;48.128;11.376;2022-09-21T19:53:43;9.30;78.30
9448;DHT22;4762;48.128;11.376;2022-09-21T19:55:52;9.30;78.00
9448;DHT22;4762;48.128;11.376;2022-09-21T19:58:05;9.30;77.80
9448;DHT22;4762;48.128;11.376;2022-09-21T20:00:16;9.40;77.10
9448;DHT22;4762;48.128;11.376;2022-09-21T20:02:24;9.30;77.10
9448;DHT22;4762;48.128;11.376;2022-09-21T20:04:35;9.10;77.80
9448;DHT22;4762;48.128;11.376;2022-09-21T20:06:46;9.10;78.30
9448;DHT22;4762;48.128;11.376;2022-09-21T20:48:32;7.60;82.30
9448;DHT22;4762;48.128;11.376;2022-09-21T20:50:34;7.40;82.80
9448;DHT22;4762;48.128;11.376;2022-09-21T21:09:55;7.20;83.10
9448;DHT22;4762;48.128;11.376;2022-09-21T21:11:59;7.20;83.00
9448;DHT22;4762;48.128;11.376;2022-09-21T21:14:04;7.10;83.40
9448;DHT22;4762;48.128;11.376;2022-09-21T21:16:06;6.80;84.10
9448;DHT22;4762;48.128;11.376;2022-09-21T21:18:09;6.80;84.30
9448;DHT22;4762;48.128;11.376;2022-09-21T21:20:12;6.90;84.10
9448;DHT22;4762;48.128;11.376;2022-09-21T21:22:18;6.80;83.70
9448;DHT22;4762;48.128;11.376;2022-09-21T21:24:27;6.60;84.50
9448;DHT22;4762;48.128;11.376;2022-09-21T21:46:43;6.30;84.30
9448;DHT22;4762;48.128;11.376;2022-09-21T22:08:48;6.00;87.30
9448;DHT22;4762;48.128;11.376;2022-09-21T22:10:52;6.10;87.50
9448;DHT22;4762;48.128;11.376;2022-09-21T22:13:02;6.20;86.50
9448;DHT22;4762;48.128;11.376;2022-09-21T22:15:27;5.90;86.40
9448;DHT22;4762;48.128;11.376;2022-09-21T22:17:40;5.90;86.70
9448;DHT22;4762;48.128;11.376;2022-09-21T22:20:22;5.90;87.20
9448;DHT22;4762;48.128;11.376;2022-09-21T22:22:35;5.90;86.80
9448;DHT22;4762;48.128;11.376;2022-09-21T22:25:01;5.80;87.00
9448;DHT22;4762;48.128;11.376;2022-09-21T22:27:27;5.70;86.60
9448;DHT22;4762;48.128;11.376;2022-09-21T22:29:53;5.80;86.70
9448;DHT22;4762;48.128;11.376;2022-09-21T22:32:09;5.70;85.90
9448;DHT22;4762;48.128;11.376;2022-09-21T22:51:49;5.50;87.60
9448;DHT22;4762;48.128;11.376;2022-09-21T22:54:13;5.20;87.50
9448;DHT22;4762;48.128;11.376;2022-09-21T23:13:37;4.90;88.40
9448;DHT22;4762;48.128;11.376;2022-09-21T23:15:43;4.80;88.50
9448;DHT22;4762;48.128;11.376;2022-09-21T23:17:46;4.90;88.40
9448;DHT22;4762;48.128;11.376;2022-09-21T23:19:49;4.70;88.70
9448;DHT22;4762;48.128;11.376;2022-09-21T23:21:52;4.50;88.90
9448;DHT22;4762;48.128;11.376;2022-09-21T23:23:57;4.40;88.50
9448;DHT22;4762;48.128;11.376;2022-09-21T23:26:05;4.50;88.70
9448;DHT22;4762;48.128;11.376;2022-09-21T23:28:16;4.50;88.20
9448;DHT22;4762;48.128;11.376;2022-09-21T23:30:21;4.50;87.90
9448;DHT22;4762;48.128;11.376;2022-09-21T23:32:23;4.60;87.90
9448;DHT22;4762;48.128;11.376;2022-09-21T23:34:26;4.50;88.50
9448;DHT22;4762;48.128;11.376;2022-09-21T23:36:29;4.50;87.90
9448;DHT22;4762;48.128;11.376;2022-09-21T23:38:33;4.50;87.70
9448;DHT22;4762;48.128;11.376;2022-09-21T23:40:36;4.30;88.20
9448;DHT22;4762;48.128;11.376;2022-09-21T23:42:45;4.60;87.70
9448;DHT22;4762;48.128;11.376;2022-09-21T23:45:07;4.30;88.30
9448;DHT22;4762;48.128;11.376;2022-09-21T23:49:54;4.10;88.90
9448;DHT22;4762;48.128;11.376;2022-09-21T23:52:15;4.30;88.60
9448;DHT22;4762;48.128;11.376;2022-09-21T23:54:41;4.30;88.80
9448;DHT22;4762;48.128;11.376;2022-09-21T23:56:58;4.00;89.20
9448;DHT22;4762;48.128;11.376;2022-09-21T23:59:21;3.90;89.40
